Time;durP1;ratioP1;P1;durP2;ratioP2;P2;SDS_P1;SDS_P2;PMS_P1;PMS_P2;Temp;Humidity;BMP_temperature;BMP_pressure;BME280_temperature;BME280_humidity;BME280_pressure;Samples;Min_cycle;Max_cycle;Signal;HPM_P1;HPM_P2
2023/06/17 00:00:57;;;;;;;5.57;4.37;;;12.70;69.90;;;;;;5003983;28;20192;-69
2023/06/17 00:03:25;;;;;;;8.43;5.07;;;12.80;69.10;;;;;;5005108;28;20184;-71
2023/06/17 00:05:52;;;;;;;8.40;4.77;;;12.80;69.00;;;;;;5000760;28;20243;-68
2023/06/17 00:08:20;;;;;;;12.93;5.70;;;12.90;69.30;;;;;;5007765;28;20201;-67
2023/06/17 00:10:48;;;;;;;8.97;5.00;;;13.00;69.00;;;;;;5003752;28;20552;-67
2023/06/17 00:13:19;;;;;;;9.60;5.53;;;13.10;68.20;;;;;;5007064;28;20207;-67
2023/06/17 00:15:50;;;;;;;9.00;6.00;;;13.20;67.90;;;;;;5002314;28;20641;-67
2023/06/17 00:18:22;;;;;;;7.13;4.77;;;13.20;68.20;;;;;;5006187;28;20224;-66
2023/06/17 00:20:52;;;;;;;13.67;5.40;;;13.30;67.80;;;;;;5001710;28;20267;-68
2023/06/17 00:23:21;;;;;;;8.80;5.30;;;13.40;66.90;;;;;;5005077;28;20277;-67
2023/06/17 00:25:49;;;;;;;8.20;5.20;;;13.50;66.60;;;;;;5007063;28;20606;-66
2023/06/17 00:28:17;;;;;;;8.10;5.37;;;13.70;67.40;;;;;;5005959;28;20642;-66
2023/06/17 00:30:46;;;;;;;8.50;5.07;;;13.80;66.40;;;;;;5006478;28;20253;-66
2023/06/17 00:33:15;;;;;;;8.30;5.53;;;13.80;66.00;;;;;;4999962;28;20194;-66
2023/06/17 00:35:42;;;;;;;9.43;5.70;;;13.90;66.00;;;;;;5003683;28;20192;-66
2023/06/17 00:38:10;;;;;;;11.13;6.00;;;14.00;65.60;;;;;;5004466;28;20219;-68
2023/06/17 00:40:37;;;;;;;12.43;5.93;;;14.10;65.00;;;;;;4999755;28;20259;-65
2023/06/17 00:43:04;;;;;;;12.77;5.90;;;14.20;65.50;;;;;;5001761;28;20187;-66
2023/06/17 00:45:38;;;;;;;9.63;6.00;;;14.20;64.60;;;;;;5001854;28;20576;-66
2023/06/17 00:48:10;;;;;;;13.53;5.93;;;14.30;64.80;;;;;;5001607;28;20182;-65
2023/06/17 00:50:38;;;;;;;17.33;5.77;;;14.40;64.00;;;;;;5000843;28;20631;-66
2023/06/17 00:53:06;;;;;;;9.30;5.30;;;14.50;63.70;;;;;;5001032;28;20319;-66
2023/06/17 00:55:35;;;;;;;11.13;5.47;;;14.50;63.40;;;;;;5004745;28;20174;-67
2023/06/17 00:58:03;;;;;;;11.27;5.90;;;14.70;62.80;;;;;;5004105;28;20229;-66
2023/06/17 01:00:31;;;;;;;14.13;6.20;;;14.80;62.20;;;;;;5006727;28;20173;-67
2023/06/17 01:02:58;;;;;;;9.37;5.63;;;14.90;61.90;;;;;;5001296;28;20185;-68
2023/06/17 01:05:27;;;;;;;10.77;5.47;;;15.10;61.50;;;;;;5004119;28;20250;-67
2023/06/17 01:08:09;;;;;;;14.73;5.57;;;15.20;60.30;;;;;;4994879;28;20616;-67
2023/06/17 01:10:51;;;;;;;9.53;5.20;;;15.40;60.10;;;;;;5004036;28;20185;-70
2023/06/17 01:13:19;;;;;;;8.50;4.97;;;15.30;58.80;;;;;;5001264;28;20281;-67
2023/06/17 01:15:46;;;;;;;6.70;4.73;;;15.60;58.70;;;;;;5002070;28;20210;-67
2023/06/17 01:18:17;;;;;;;9.47;5.20;;;15.70;57.50;;;;;;5001840;28;20787;-67
2023/06/17 01:20:48;;;;;;;7.70;5.13;;;15.90;58.70;;;;;;5003181;28;20904;-67
2023/06/17 01:23:18;;;;;;;9.37;4.80;;;16.10;58.10;;;;;;5004586;28;20186;-67
2023/06/17 01:25:45;;;;;;;9.70;4.40;;;16.20;57.00;;;;;;5000882;28;20178;-67
2023/06/17 01:28:19;;;;;;;11.20;5.50;;;16.20;56.70;;;;;;5003611;28;20182;-68
2023/06/17 01:30:47;;;;;;;12.37;4.50;;;16.20;57.50;;;;;;5003041;28;20262;-68
2023/06/17 01:33:16;;;;;;;9.63;4.97;;;16.60;56.40;;;;;;5003324;28;20197;-67
2023/06/17 01:36:05;;;;;;;6.77;4.20;;;16.80;54.90;;;;;;5003118;28;20242;-67
2023/06/17 01:38:46;;;;;;;6.50;4.00;;;16.90;53.90;;;;;;5005937;28;20195;-70
2023/06/17 01:41:18;;;;;;;10.57;4.30;;;17.00;53.50;;;;;;4997759;28;20283;-70
2023/06/17 01:43:46;;;;;;;7.47;3.90;;;17.10;53.10;;;;;;5000032;28;20177;-71
2023/06/17 01:46:14;;;;;;;7.87;4.37;;;17.10;52.30;;;;;;5003208;28;20182;-69
2023/06/17 01:48:43;;;;;;;10.90;4.57;;;16.90;52.30;;;;;;4996825;28;20196;-70
2023/06/17 01:51:10;;;;;;;10.23;4.57;;;17.10;53.10;;;;;;5005037;28;20264;-67
2023/06/17 01:53:37;;;;;;;7.57;4.70;;;17.30;52.90;;;;;;5003112;28;20280;-68
2023/06/17 01:56:05;;;;;;;9.60;4.30;;;17.40;52.30;;;;;;5005527;28;20184;-69
2023/06/17 01:58:32;;;;;;;7.90;4.43;;;17.80;51.80;;;;;;5009862;28;20219;-67
2023/06/17 02:01:02;;;;;;;6.27;3.67;;;17.80;51.10;;;;;;5007333;28;20201;-69
2023/06/17 02:03:30;;;;;;;5.67;3.83;;;17.80;50.80;;;;;;5001086;28;20177;-67
2023/06/17 02:05:57;;;;;;;7.83;3.70;;;17.90;49.10;;;;;;5006917;28;20639;-70
2023/06/17 02:08:26;;;;;;;5.97;3.27;;;17.80;48.70;;;;;;5005391;28;20193;-67
2023/06/17 02:10:54;;;;;;;7.60;3.30;;;18.00;47.80;;;;;;5009241;28;20242;-68
2023/06/17 02:13:21;;;;;;;7.13;3.03;;;18.20;46.70;;;;;;5002180;28;20185;-72
2023/06/17 02:15:49;;;;;;;6.73;3.10;;;18.30;46.80;;;;;;5000888;28;20224;-68
2023/06/17 02:18:17;;;;;;;9.53;3.40;;;18.30;43.70;;;;;;5007719;28;20256;-69
2023/06/17 02:20:44;;;;;;;5.03;3.40;;;18.30;44.60;;;;;;5001702;28;20641;-71
2023/06/17 02:23:11;;;;;;;4.70;3.33;;;18.40;44.40;;;;;;5008358;28;20194;-71
2023/06/17 02:25:39;;;;;;;5.27;3.17;;;18.50;43.70;;;;;;5008726;28;20197;-67
2023/06/17 02:28:10;;;;;;;9.03;3.27;;;18.70;43.80;;;;;;5006831;28;20190;-72
2023/06/17 02:30:37;;;;;;;6.73;3.23;;;18.80;44.80;;;;;;4985174;28;20632;-70
2023/06/17 02:33:05;;;;;;;5.50;2.70;;;19.10;43.90;;;;;;5004162;28;20271;-68
2023/06/17 02:35:32;;;;;;;3.60;2.77;;;19.00;43.50;;;;;;5009684;28;20190;-72
2023/06/17 02:38:00;;;;;;;5.27;3.03;;;19.00;44.40;;;;;;5003821;28;20231;-67
2023/06/17 02:40:27;;;;;;;4.80;3.07;;;19.10;44.20;;;;;;5006803;28;20217;-71
2023/06/17 02:42:55;;;;;;;4.47;2.80;;;18.80;44.70;;;;;;5008329;28;20678;-71
2023/06/17 02:45:22;;;;;;;5.83;3.27;;;19.00;45.00;;;;;;5008634;28;20188;-70
2023/06/17 02:47:50;;;;;;;4.37;3.10;;;18.90;44.70;;;;;;4999709;28;20186;-70
2023/06/17 02:50:21;;;;;;;7.90;3.70;;;19.00;45.10;;;;;;5009258;28;20663;-68
2023/06/17 02:52:55;;;;;;;5.27;3.17;;;19.00;45.00;;;;;;5003313;28;20185;-67
2023/06/17 02:55:25;;;;;;;8.47;3.20;;;18.80;45.10;;;;;;4998773;28;20256;-71
2023/06/17 02:57:52;;;;;;;6.53;3.40;;;18.80;45.50;;;;;;5004781;28;20227;-67
2023/06/17 03:00:20;;;;;;;8.97;3.37;;;18.80;45.60;;;;;;5001195;28;20193;-68
2023/06/17 03:02:49;;;;;;;6.80;3.77;;;18.80;45.80;;;;;;5006271;28;20186;-67
2023/06/17 03:05:19;;;;;;;6.67;3.00;;;18.80;45.60;;;;;;5002934;28;20215;-66
2023/06/17 03:07:47;;;;;;;7.47;2.97;;;18.80;45.70;;;;;;5007738;28;20661;-67
2023/06/17 03:10:16;;;;;;;7.20;3.47;;;18.70;45.90;;;;;;4991372;28;20186;-67
2023/06/17 03:12:44;;;;;;;8.20;2.80;;;18.80;46.30;;;;;;5005216;28;20235;-67
2023/06/17 03:15:13;;;;;;;6.53;3.20;;;18.90;45.50;;;;;;5007917;28;20247;-67
2023/06/17 03:17:41;;;;;;;6.17;2.90;;;19.00;44.80;;;;;;5005800;28;20212;-67
2023/06/17 03:20:09;;;;;;;6.13;3.07;;;18.90;45.50;;;;;;5006788;28;20623;-67
2023/06/17 03:22:36;;;;;;;6.67;3.20;;;19.10;45.00;;;;;;5002760;28;20586;-67
2023/06/17 03:25:04;;;;;;;5.80;2.87;;;19.00;44.50;;;;;;5009036;28;20181;-67
2023/06/17 03:27:31;;;;;;;5.53;2.80;;;19.10;44.80;;;;;;4988583;28;20239;-66
2023/06/17 03:29:58;;;;;;;5.70;3.17;;;19.20;44.90;;;;;;5001152;28;20694;-66
2023/06/17 03:32:26;;;;;;;4.63;2.90;;;19.30;44.40;;;;;;5000934;28;20187;-67
2023/06/17 03:34:53;;;;;;;5.60;3.30;;;19.70;44.10;;;;;;5008462;28;20231;-68
2023/06/17 03:37:22;;;;;;;7.17;2.40;;;20.00;44.10;;;;;;5002931;28;20243;-69
2023/06/17 03:39:50;;;;;;;6.00;2.63;;;20.30;42.70;;;;;;5002259;28;20230;-68
2023/06/17 03:42:17;;;;;;;4.60;2.50;;;20.90;41.60;;;;;;5000063;28;20385;-69
2023/06/17 03:44:44;;;;;;;6.07;2.70;;;21.00;40.80;;;;;;4998312;28;20235;-69
2023/06/17 03:47:11;;;;;;;7.27;2.77;;;21.60;40.00;;;;;;5005395;28;20237;-71
2023/06/17 03:49:39;;;;;;;6.63;2.67;;;21.40;39.30;;;;;;5001009;28;20679;-70
2023/06/17 03:52:07;;;;;;;6.17;2.53;;;21.50;39.00;;;;;;5004842;28;20199;-67
2023/06/17 03:54:34;;;;;;;4.90;2.80;;;21.90;38.50;;;;;;5007157;28;20180;-69
2023/06/17 03:57:02;;;;;;;6.13;3.37;;;21.50;41.20;;;;;;5002871;28;20213;-66
2023/06/17 03:59:29;;;;;;;5.10;3.40;;;21.20;42.40;;;;;;5003102;28;20185;-69
2023/06/17 04:01:58;;;;;;;7.40;3.43;;;21.30;42.70;;;;;;5004906;28;20212;-68
2023/06/17 04:04:28;;;;;;;8.47;3.30;;;21.70;42.70;;;;;;5007092;28;20548;-67
2023/06/17 04:06:55;;;;;;;5.67;3.00;;;22.00;41.20;;;;;;5002135;28;20178;-66
2023/06/17 04:09:23;;;;;;;6.10;2.60;;;22.30;41.00;;;;;;5005363;28;20200;-70
2023/06/17 04:11:50;;;;;;;6.53;3.00;;;22.10;40.80;;;;;;4999878;28;20338;-68
2023/06/17 04:14:18;;;;;;;6.97;3.13;;;21.80;42.90;;;;;;4983970;28;20212;-68
2023/06/17 04:16:45;;;;;;;7.87;3.17;;;22.00;44.10;;;;;;5009206;28;20220;-66
2023/06/17 04:19:13;;;;;;;6.23;3.13;;;22.40;44.20;;;;;;5005330;28;20177;-67
2023/06/17 04:21:41;;;;;;;10.47;3.30;;;22.50;43.50;;;;;;4999294;28;20181;-67
2023/06/17 04:24:08;;;;;;;6.50;2.73;;;22.00;44.30;;;;;;5004072;28;20251;-67
2023/06/17 04:26:35;;;;;;;7.07;3.07;;;21.70;44.90;;;;;;5002074;28;20185;-67
2023/06/17 04:29:03;;;;;;;7.47;2.70;;;21.70;43.80;;;;;;5005685;28;20554;-67
2023/06/17 04:31:32;;;;;;;4.57;2.53;;;22.00;43.00;;;;;;5009235;28;20181;-67
2023/06/17 04:34:00;;;;;;;5.30;2.43;;;22.60;41.40;;;;;;5004654;28;20927;-66
2023/06/17 04:36:28;;;;;;;5.50;2.70;;;22.40;42.10;;;;;;5002767;28;20218;-67
2023/06/17 04:38:56;;;;;;;4.77;2.60;;;22.60;41.40;;;;;;5005467;28;20209;-67
2023/06/17 04:41:23;;;;;;;6.83;2.90;;;22.90;41.10;;;;;;5003418;28;20232;-67
2023/06/17 04:43:51;;;;;;;7.00;3.10;;;22.60;42.20;;;;;;5004988;28;20189;-68
2023/06/17 04:46:19;;;;;;;8.33;3.27;;;22.40;42.90;;;;;;4988915;28;20190;-67
2023/06/17 04:48:47;;;;;;;8.33;3.13;;;22.20;43.50;;;;;;5008491;28;20189;-68
2023/06/17 04:51:17;;;;;;;5.60;2.37;;;22.30;43.10;;;;;;5004496;28;20185;-66
2023/06/17 04:53:45;;;;;;;7.57;2.60;;;22.80;41.40;;;;;;5005427;28;20635;-68
2023/06/17 04:56:12;;;;;;;4.13;2.60;;;23.40;39.90;;;;;;5004206;28;20337;-65
2023/06/17 04:58:39;;;;;;;3.47;2.30;;;22.90;41.00;;;;;;5000174;28;20182;-66
2023/06/17 05:01:06;;;;;;;6.73;2.63;;;22.80;41.50;;;;;;5003997;28;20189;-65
2023/06/17 05:03:34;;;;;;;8.97;2.10;;;23.00;41.20;;;;;;5006894;28;20189;-68
2023/06/17 05:06:01;;;;;;;3.00;2.00;;;23.60;39.10;;;;;;5007110;28;20192;-66
2023/06/17 05:08:28;;;;;;;5.77;2.23;;;23.50;38.50;;;;;;5007564;28;20252;-67
2023/06/17 05:10:56;;;;;;;4.33;2.37;;;22.80;41.00;;;;;;4998515;28;20181;-67
2023/06/17 05:13:23;;;;;;;4.47;2.20;;;23.30;40.80;;;;;;5001387;28;20209;-70
2023/06/17 05:15:50;;;;;;;7.67;2.20;;;23.10;40.30;;;;;;4998638;28;20204;-69
2023/06/17 05:18:18;;;;;;;7.60;2.40;;;23.80;40.30;;;;;;5005842;28;20355;-66
2023/06/17 05:20:45;;;;;;;7.73;2.73;;;24.30;39.00;;;;;;5002752;28;20185;-71
2023/06/17 05:23:12;;;;;;;6.07;2.10;;;23.90;38.90;;;;;;5002943;28;20194;-65
2023/06/17 05:25:40;;;;;;;3.23;1.90;;;23.50;39.20;;;;;;5002690;28;20327;-67
2023/06/17 05:28:10;;;;;;;4.03;1.83;;;22.90;39.70;;;;;;4995983;28;20256;-66
2023/06/17 05:30:42;;;;;;;11.33;2.10;;;23.30;39.60;;;;;;5003715;28;20196;-66
2023/06/17 05:33:09;;;;;;;5.43;2.17;;;22.60;41.90;;;;;;5000622;28;20244;-68
2023/06/17 05:35:37;;;;;;;5.63;2.03;;;22.70;42.20;;;;;;5007039;28;20210;-66
2023/06/17 05:38:04;;;;;;;7.20;1.87;;;23.30;40.40;;;;;;5004255;28;20209;-65
2023/06/17 05:40:31;;;;;;;3.17;1.83;;;23.50;39.80;;;;;;5006037;28;20303;-66
2023/06/17 05:42:59;;;;;;;5.10;1.77;;;23.30;40.60;;;;;;5005033;28;20710;-68
2023/06/17 05:45:26;;;;;;;4.73;2.10;;;22.90;41.30;;;;;;5005476;28;20535;-66
2023/06/17 05:47:53;;;;;;;6.97;2.83;;;23.00;41.60;;;;;;5009551;28;20198;-65
2023/06/17 05:50:21;;;;;;;4.40;2.20;;;22.80;43.20;;;;;;5002023;28;20272;-65
2023/06/17 05:52:48;;;;;;;5.67;2.20;;;22.80;44.00;;;;;;5008079;28;20186;-66
2023/06/17 05:55:16;;;;;;;6.00;2.50;;;22.30;46.20;;;;;;5002033;28;20231;-66
2023/06/17 05:57:43;;;;;;;12.07;6.63;;;22.30;46.90;;;;;;5000433;28;20237;-65
2023/06/17 06:00:12;;;;;;;10.33;3.10;;;22.60;46.10;;;;;;5006764;28;20203;-66
2023/06/17 06:02:39;;;;;;;4.00;2.13;;;22.00;47.60;;;;;;5005957;28;20190;-65
2023/06/17 06:05:07;;;;;;;5.13;2.07;;;21.80;48.40;;;;;;5005933;28;20204;-66
2023/06/17 06:07:34;;;;;;;4.93;1.90;;;21.80;48.70;;;;;;5004804;28;20217;-66
2023/06/17 06:10:06;;;;;;;7.17;1.90;;;21.10;50.30;;;;;;4998324;28;20190;-67
2023/06/17 06:12:33;;;;;;;3.67;1.80;;;20.40;52.60;;;;;;5011189;28;20193;-66
2023/06/17 06:15:00;;;;;;;4.23;1.70;;;19.80;54.60;;;;;;5009105;28;20189;-66
2023/06/17 06:17:28;;;;;;;2.93;1.60;;;19.30;56.50;;;;;;5007901;28;20216;-66
2023/06/17 06:19:55;;;;;;;4.57;1.40;;;18.80;58.20;;;;;;5005476;28;20204;-67
2023/06/17 06:22:22;;;;;;;5.43;1.77;;;18.80;58.90;;;;;;5005251;28;20220;-65
2023/06/17 06:24:50;;;;;;;5.13;2.40;;;18.60;59.50;;;;;;4999974;28;20283;-65
2023/06/17 06:27:17;;;;;;;8.77;2.37;;;18.30;60.60;;;;;;5004806;28;20185;-65
2023/06/17 06:29:45;;;;;;;4.73;1.40;;;18.00;61.30;;;;;;5006051;28;20273;-65
2023/06/17 06:32:12;;;;;;;4.03;1.53;;;17.80;62.20;;;;;;5006939;28;20705;-65
2023/06/17 06:34:39;;;;;;;3.97;1.83;;;17.70;62.80;;;;;;5002317;28;20189;-65
2023/06/17 06:37:06;;;;;;;5.67;1.90;;;17.50;63.60;;;;;;5008247;28;20229;-65
2023/06/17 06:39:34;;;;;;;6.73;1.63;;;17.40;63.90;;;;;;5000192;28;20189;-65
2023/06/17 06:42:01;;;;;;;4.60;1.80;;;17.30;64.20;;;;;;5008761;28;20198;-66
2023/06/17 06:44:30;;;;;;;8.43;2.93;;;17.20;64.30;;;;;;5006540;28;20185;-65
2023/06/17 06:46:57;;;;;;;4.50;2.47;;;17.10;64.70;;;;;;5007875;28;20190;-65
2023/06/17 06:49:24;;;;;;;6.07;2.10;;;17.00;65.00;;;;;;5007981;28;20272;-68
2023/06/17 06:51:52;;;;;;;3.10;1.83;;;16.90;65.30;;;;;;5005142;28;20184;-68
2023/06/17 06:54:19;;;;;;;5.30;1.90;;;16.80;65.70;;;;;;5005713;28;20199;-65
2023/06/17 06:56:46;;;;;;;5.20;1.77;;;16.80;66.00;;;;;;5005127;28;20217;-67
2023/06/17 06:59:14;;;;;;;2.70;1.67;;;16.70;66.10;;;;;;5005822;28;20200;-70
2023/06/17 07:01:41;;;;;;;8.63;2.07;;;16.70;66.40;;;;;;4999105;28;20699;-67
2023/06/17 07:04:10;;;;;;;3.10;2.10;;;16.50;66.60;;;;;;5005408;28;20181;-67
2023/06/17 07:06:37;;;;;;;7.87;2.53;;;16.50;66.90;;;;;;5011385;28;20184;-69
2023/06/17 07:09:04;;;;;;;4.63;2.20;;;16.50;67.10;;;;;;5006261;28;20240;-70
2023/06/17 07:11:32;;;;;;;6.07;2.17;;;16.40;67.50;;;;;;5003735;28;20189;-67
2023/06/17 07:13:59;;;;;;;6.10;1.90;;;16.40;67.70;;;;;;5004566;28;20194;-67
2023/06/17 07:16:26;;;;;;;4.50;1.97;;;16.30;68.20;;;;;;5010475;28;20713;-67
2023/06/17 07:18:54;;;;;;;4.47;1.80;;;16.30;68.40;;;;;;5003580;28;20530;-67
2023/06/17 07:21:21;;;;;;;5.70;2.33;;;16.30;68.70;;;;;;5005432;28;20193;-70
2023/06/17 07:23:48;;;;;;;8.50;2.40;;;16.20;69.30;;;;;;5005393;28;20203;-68
2023/06/17 07:26:16;;;;;;;7.37;2.20;;;16.10;69.40;;;;;;5006635;28;20181;-66
2023/06/17 07:28:44;;;;;;;8.70;2.20;;;16.00;69.90;;;;;;5004626;28;20270;-66
2023/06/17 07:31:12;;;;;;;7.33;2.47;;;16.00;70.10;;;;;;5004463;28;20317;-67
2023/06/17 07:33:41;;;;;;;7.17;2.00;;;16.00;70.50;;;;;;5006140;28;20253;-64
2023/06/17 07:36:08;;;;;;;9.70;2.30;;;15.90;70.50;;;;;;5005232;28;20664;-64
2023/06/17 07:38:36;;;;;;;5.20;2.60;;;15.80;70.80;;;;;;5004261;28;20181;-65
2023/06/17 07:41:03;;;;;;;5.90;3.00;;;15.80;71.00;;;;;;5004392;28;20288;-66
2023/06/17 07:43:33;;;;;;;6.60;2.50;;;15.70;71.10;;;;;;5005792;28;20186;-65
2023/06/17 07:46:00;;;;;;;6.27;2.80;;;15.60;71.70;;;;;;4999047;28;20186;-67
2023/06/17 07:48:28;;;;;;;8.97;4.13;;;15.60;72.10;;;;;;5006054;28;20208;-66
2023/06/17 07:50:55;;;;;;;8.07;5.03;;;15.50;72.10;;;;;;5005663;28;20681;-65
2023/06/17 07:53:23;;;;;;;9.20;6.03;;;15.40;72.20;;;;;;5002011;28;20729;-65
2023/06/17 07:55:52;;;;;;;10.67;5.37;;;15.40;72.90;;;;;;4998292;28;20705;-67
2023/06/17 07:58:20;;;;;;;13.37;7.70;;;15.30;72.90;;;;;;5007539;28;20279;-65
2023/06/17 08:00:47;;;;;;;22.67;12.20;;;15.30;73.40;;;;;;5003604;28;20197;-66
2023/06/17 08:03:15;;;;;;;44.10;31.33;;;15.30;73.70;;;;;;5009601;28;20237;-66
2023/06/17 08:05:42;;;;;;;27.73;20.10;;;15.30;74.20;;;;;;5008168;28;20268;-65
2023/06/17 08:08:09;;;;;;;22.47;14.30;;;15.20;74.40;;;;;;5003899;28;20277;-65
2023/06/17 08:10:37;;;;;;;18.90;10.70;;;15.20;74.30;;;;;;5002332;28;20191;-66
2023/06/17 08:13:04;;;;;;;14.07;9.20;;;15.20;74.70;;;;;;5002601;28;20855;-67
2023/06/17 08:15:31;;;;;;;12.83;8.07;;;15.20;74.50;;;;;;5007850;28;20186;-65
2023/06/17 08:17:59;;;;;;;14.13;7.10;;;15.10;74.80;;;;;;5003626;28;20227;-64
2023/06/17 08:20:26;;;;;;;9.77;6.03;;;15.00;74.90;;;;;;5002296;28;20752;-66
2023/06/17 08:22:53;;;;;;;23.93;12.57;;;15.00;75.20;;;;;;5003671;28;20202;-65
2023/06/17 08:25:21;;;;;;;18.40;10.83;;;14.90;75.30;;;;;;5001393;28;20188;-65
2023/06/17 08:27:50;;;;;;;17.07;8.37;;;14.80;75.30;;;;;;5001391;28;20213;-65
2023/06/17 08:30:17;;;;;;;8.77;5.10;;;14.80;75.60;;;;;;5001252;28;20571;-65
2023/06/17 08:32:45;;;;;;;11.07;4.00;;;14.80;75.50;;;;;;5006713;28;20213;-65
2023/06/17 08:35:14;;;;;;;9.33;3.93;;;14.80;75.50;;;;;;4990825;28;20189;-68
2023/06/17 08:37:41;;;;;;;8.17;3.30;;;14.80;75.50;;;;;;4992894;28;20215;-66
2023/06/17 08:40:09;;;;;;;10.00;3.00;;;14.70;75.70;;;;;;4995928;28;20218;-66
2023/06/17 08:42:38;;;;;;;6.37;3.07;;;14.60;75.30;;;;;;5004762;28;20244;-66
2023/06/17 08:45:08;;;;;;;10.60;5.03;;;14.60;75.40;;;;;;5008167;28;20264;-66
2023/06/17 08:47:36;;;;;;;6.33;3.37;;;14.60;75.40;;;;;;5005213;28;20193;-66
2023/06/17 08:50:05;;;;;;;9.10;5.60;;;14.50;75.30;;;;;;5006942;28;20257;-65
2023/06/17 08:52:36;;;;;;;12.70;6.67;;;14.50;75.00;;;;;;5002036;28;20189;-65
2023/06/17 08:55:03;;;;;;;14.07;6.50;;;14.60;74.90;;;;;;5001184;28;20624;-67
2023/06/17 08:57:31;;;;;;;17.13;7.23;;;14.50;74.70;;;;;;5003431;28;20225;-66
2023/06/17 08:59:59;;;;;;;14.70;9.57;;;14.50;74.90;;;;;;5007120;28;20196;-66
2023/06/17 09:02:28;;;;;;;14.97;7.50;;;14.50;74.80;;;;;;5000850;28;20655;-66
2023/06/17 09:04:55;;;;;;;7.13;4.87;;;14.50;74.80;;;;;;5004471;28;20223;-66
2023/06/17 09:07:23;;;;;;;9.87;4.47;;;14.50;74.40;;;;;;5002166;28;20182;-66
2023/06/17 09:09:55;;;;;;;7.83;3.60;;;14.40;74.20;;;;;;5002556;28;20197;-65
2023/06/17 09:12:25;;;;;;;8.97;4.40;;;14.40;73.90;;;;;;4999530;28;20190;-66
2023/06/17 09:14:54;;;;;;;9.43;4.83;;;14.40;73.50;;;;;;5005637;28;20852;-67
2023/06/17 09:17:32;;;;;;;7.57;4.10;;;14.50;73.20;;;;;;5002651;28;20222;-67
2023/06/17 09:20:14;;;;;;;7.97;3.97;;;14.40;72.60;;;;;;5008298;28;20704;-65
2023/06/17 09:22:42;;;;;;;10.30;4.17;;;14.50;72.40;;;;;;5004507;28;20576;-65
2023/06/17 09:25:15;;;;;;;8.77;4.30;;;14.50;72.20;;;;;;5009005;28;20197;-66
2023/06/17 09:28:00;;;;;;;7.77;4.60;;;14.50;72.60;;;;;;4992110;28;20235;-65
2023/06/17 09:30:27;;;;;;;9.27;4.60;;;14.50;72.70;;;;;;5003501;28;20264;-65
2023/06/17 09:32:55;;;;;;;6.93;4.10;;;14.50;72.70;;;;;;5004329;28;20181;-65
2023/06/17 09:35:23;;;;;;;8.33;4.87;;;14.40;72.90;;;;;;5003297;28;20224;-65
2023/06/17 09:37:53;;;;;;;7.53;4.53;;;14.30;72.80;;;;;;5004668;28;20229;-65
2023/06/17 09:40:20;;;;;;;10.70;4.07;;;14.30;72.60;;;;;;5000567;28;20243;-66
2023/06/17 09:42:50;;;;;;;6.93;4.30;;;14.30;72.40;;;;;;5001788;28;20675;-65
2023/06/17 09:45:24;;;;;;;6.63;4.30;;;14.30;72.30;;;;;;5008155;28;20664;-65
2023/06/17 09:47:55;;;;;;;9.20;5.90;;;14.30;72.40;;;;;;5004634;28;20193;-65
2023/06/17 09:50:24;;;;;;;12.00;7.07;;;14.30;72.10;;;;;;5006119;28;20666;-65
2023/06/17 09:52:55;;;;;;;16.23;7.80;;;14.30;71.70;;;;;;4999749;28;20672;-65
2023/06/17 09:55:26;;;;;;;12.80;7.20;;;14.30;71.20;;;;;;5003522;28;20201;-65
2023/06/17 09:57:54;;;;;;;12.17;7.67;;;14.30;71.10;;;;;;5004655;28;20574;-66
2023/06/17 10:00:25;;;;;;;14.33;7.33;;;14.20;71.40;;;;;;5008088;28;20247;-65
2023/06/17 10:02:55;;;;;;;10.80;6.97;;;14.20;71.80;;;;;;5001502;28;20201;-65
2023/06/17 10:05:25;;;;;;;11.50;9.13;;;14.10;71.70;;;;;;5001609;28;20186;-66
2023/06/17 10:07:57;;;;;;;13.23;8.10;;;14.00;72.20;;;;;;5002826;28;20187;-65
2023/06/17 10:10:25;;;;;;;12.93;7.47;;;13.80;72.80;;;;;;5003168;28;20173;-66
2023/06/17 10:12:55;;;;;;;11.60;6.60;;;13.80;73.80;;;;;;5004534;28;20196;-65
2023/06/17 10:15:24;;;;;;;12.53;5.93;;;13.80;73.90;;;;;;5000111;28;20197;-66
2023/06/17 10:17:53;;;;;;;11.17;5.83;;;13.80;73.60;;;;;;5001764;28;20217;-66
2023/06/17 10:20:23;;;;;;;9.27;5.37;;;13.90;73.40;;;;;;5009890;28;20177;-66
2023/06/17 10:22:54;;;;;;;9.63;5.67;;;13.80;73.30;;;;;;5002623;28;20315;-66
2023/06/17 10:25:23;;;;;;;9.73;5.70;;;13.80;73.20;;;;;;5010538;28;20188;-66
2023/06/17 10:27:51;;;;;;;8.17;4.87;;;13.80;73.50;;;;;;5005368;28;20535;-66
2023/06/17 10:30:26;;;;;;;10.60;5.23;;;13.60;73.80;;;;;;5009546;28;20185;-66
2023/06/17 10:33:01;;;;;;;9.27;4.73;;;13.50;74.00;;;;;;5006011;28;20176;-66
2023/06/17 10:35:50;;;;;;;13.07;5.60;;;13.40;74.40;;;;;;5007393;28;20184;-67
2023/06/17 10:38:30;;;;;;;10.57;5.93;;;13.40;74.90;;;;;;5004290;28;20235;-67
2023/06/17 10:40:58;;;;;;;9.33;6.47;;;13.20;75.10;;;;;;5004323;28;20236;-67
2023/06/17 10:43:27;;;;;;;10.30;6.63;;;13.20;75.30;;;;;;5009496;28;20256;-66
2023/06/17 10:45:56;;;;;;;9.20;6.63;;;13.00;75.50;;;;;;5011250;28;20246;-66
2023/06/17 10:48:30;;;;;;;10.33;6.50;;;12.90;76.00;;;;;;5008190;28;20185;-66
2023/06/17 10:51:10;;;;;;;10.97;6.77;;;12.90;76.00;;;;;;5004599;28;20181;-66
2023/06/17 10:53:40;;;;;;;8.33;5.63;;;12.80;76.10;;;;;;5002541;28;20191;-66
2023/06/17 10:56:08;;;;;;;6.43;4.40;;;12.80;76.30;;;;;;5010226;28;20344;-67
2023/06/17 10:58:37;;;;;;;8.50;4.63;;;12.80;76.20;;;;;;5006641;28;20217;-67
2023/06/17 11:01:09;;;;;;;6.13;4.70;;;12.80;76.00;;;;;;5006399;28;20655;-66
2023/06/17 11:03:37;;;;;;;7.77;4.43;;;12.80;75.60;;;;;;4991189;28;20251;-66
2023/06/17 11:06:06;;;;;;;8.30;4.83;;;12.80;75.50;;;;;;5006387;28;20287;-65
2023/06/17 11:08:35;;;;;;;5.47;4.23;;;12.80;75.70;;;;;;5008122;28;20243;-66
2023/06/17 11:11:15;;;;;;;8.73;4.77;;;12.70;75.70;;;;;;5009840;28;20224;-66
2023/06/17 11:13:47;;;;;;;6.47;4.40;;;12.70;75.60;;;;;;5002675;28;20658;-66
2023/06/17 11:16:14;;;;;;;7.23;3.97;;;12.70;75.50;;;;;;5010306;28;20281;-65
2023/06/17 11:18:43;;;;;;;6.60;3.53;;;12.60;75.10;;;;;;4991901;28;20193;-65
2023/06/17 11:21:10;;;;;;;6.07;4.00;;;12.70;75.40;;;;;;5009329;28;20185;-65
2023/06/17 11:23:41;;;;;;;5.57;4.00;;;12.70;75.20;;;;;;5006068;28;20181;-64
2023/06/17 11:26:09;;;;;;;6.63;4.40;;;12.60;75.50;;;;;;5001928;28;20182;-66
2023/06/17 11:28:39;;;;;;;13.00;4.27;;;12.50;75.50;;;;;;5003927;28;20276;-65
2023/06/17 11:31:07;;;;;;;7.60;4.33;;;12.40;75.30;;;;;;5002642;28;20271;-65
2023/06/17 11:33:35;;;;;;;7.73;4.60;;;12.30;75.50;;;;;;5008597;28;20674;-65
2023/06/17 11:36:08;;;;;;;6.90;4.47;;;12.30;75.70;;;;;;5007573;28;20635;-65
2023/06/17 11:38:36;;;;;;;9.07;4.83;;;12.30;76.00;;;;;;5007082;28;20220;-65
2023/06/17 11:41:03;;;;;;;5.97;4.03;;;12.30;75.90;;;;;;5004723;28;20213;-65
2023/06/17 11:43:31;;;;;;;10.77;5.27;;;12.20;76.20;;;;;;5007709;28;20184;-66
2023/06/17 11:45:58;;;;;;;10.70;4.93;;;12.20;76.00;;;;;;5003158;28;20192;-66
2023/06/17 11:48:32;;;;;;;8.17;4.30;;;12.10;76.30;;;;;;5007966;28;20193;-68
2023/06/17 11:50:59;;;;;;;6.77;4.37;;;12.10;76.30;;;;;;5006206;28;20228;-69
2023/06/17 11:53:37;;;;;;;9.57;4.27;;;12.10;76.10;;;;;;5008422;28;20263;-66
2023/06/17 11:56:09;;;;;;;6.23;4.23;;;12.00;76.00;;;;;;5005797;28;20182;-67
2023/06/17 11:58:38;;;;;;;6.47;4.50;;;12.00;75.70;;;;;;5006283;28;20216;-67
2023/06/17 12:01:06;;;;;;;8.07;4.70;;;12.00;75.70;;;;;;5006491;28;20616;-66
2023/06/17 12:03:34;;;;;;;6.23;4.50;;;12.10;75.80;;;;;;5004641;28;20213;-67
2023/06/17 12:06:02;;;;;;;6.40;4.50;;;12.10;75.80;;;;;;5004551;28;20288;-67
2023/06/17 12:08:33;;;;;;;5.23;4.33;;;12.10;75.80;;;;;;5004462;28;20404;-68
2023/06/17 12:11:25;;;;;;;10.43;4.40;;;12.10;76.00;;;;;;4997708;28;20225;-68
2023/06/17 12:13:54;;;;;;;6.13;3.80;;;12.00;75.60;;;;;;5005678;28;20319;-68
2023/06/17 12:16:33;;;;;;;9.27;4.33;;;12.00;75.60;;;;;;5009013;28;20224;-69
2023/06/17 12:19:01;;;;;;;6.47;4.03;;;12.00;75.60;;;;;;5001495;28;20197;-66
2023/06/17 12:21:29;;;;;;;4.27;3.27;;;11.90;75.70;;;;;;5000987;28;20263;-68
2023/06/17 12:23:57;;;;;;;6.67;3.83;;;11.90;75.70;;;;;;5005610;28;20193;-67
2023/06/17 12:26:25;;;;;;;7.10;4.17;;;11.90;75.90;;;;;;5000321;28;20189;-67
2023/06/17 12:28:54;;;;;;;6.67;3.80;;;11.90;76.10;;;;;;5010244;28;20190;-68
2023/06/17 12:31:22;;;;;;;6.47;4.40;;;11.80;76.10;;;;;;4999419;28;20196;-70
2023/06/17 12:33:50;;;;;;;6.70;3.90;;;11.80;76.40;;;;;;5006872;28;20197;-70
2023/06/17 12:36:18;;;;;;;5.13;4.00;;;11.80;76.50;;;;;;5007113;28;20181;-65
2023/06/17 12:38:46;;;;;;;9.47;4.40;;;11.80;76.60;;;;;;5005921;28;20197;-69
2023/06/17 12:41:14;;;;;;;6.03;3.87;;;11.80;76.50;;;;;;5003204;28;20252;-67
2023/06/17 12:43:41;;;;;;;9.27;4.60;;;11.80;76.30;;;;;;5003112;28;20591;-67
2023/06/17 12:46:09;;;;;;;6.80;3.57;;;11.80;76.30;;;;;;5003540;28;20186;-66
2023/06/17 12:48:36;;;;;;;6.17;3.67;;;11.80;75.70;;;;;;5004126;28;20182;-68
2023/06/17 12:51:05;;;;;;;8.27;3.50;;;11.90;75.50;;;;;;5002158;28;20227;-67
2023/06/17 12:53:32;;;;;;;5.87;3.67;;;11.90;75.10;;;;;;5004721;28;20584;-66